Time;durP1;ratioP1;P1;durP2;ratioP2;P2;SDS_P1;SDS_P2;PMS_P1;PMS_P2;Temp;Humidity;BMP_temperature;BMP_pressure;BME280_temperature;BME280_humidity;BME280_pressure;Samples;Min_cycle;Max_cycle;Signal;HPM_P1;HPM_P2
2022/04/21 00:00:32;;;;;;;0.90;0.90;;;20.50;39.60;;;;;;5052898;28;20044;-64
2022/04/21 00:02:57;;;;;;;1.75;1.20;;;20.50;39.60;;;;;;5057358;28;20040;-62
2022/04/21 00:05:23;;;;;;;0.90;0.90;;;20.50;39.60;;;;;;5056172;28;20039;-63
2022/04/21 00:07:49;;;;;;;1.85;1.15;;;20.50;39.60;;;;;;5053856;28;20144;-62
2022/04/21 00:10:15;;;;;;;1.13;1.00;;;20.50;39.60;;;;;;5060299;28;20106;-62
2022/04/21 00:12:41;;;;;;;1.10;0.90;;;20.50;39.50;;;;;;5057027;28;20128;-63
2022/04/21 00:15:07;;;;;;;1.85;1.30;;;20.50;39.50;;;;;;5053805;28;20041;-63
2022/04/21 00:17:33;;;;;;;1.95;1.30;;;20.50;39.50;;;;;;5052352;28;20041;-64
2022/04/21 00:19:59;;;;;;;1.67;1.02;;;20.50;39.60;;;;;;5054116;28;20043;-62
2022/04/21 00:25:10;;;;;;;1.38;1.20;;;20.50;39.40;;;;;;5059473;28;20125;-63
2022/04/21 00:27:39;;;;;;;2.10;1.35;;;20.40;39.40;;;;;;5054989;28;20442;-62
2022/04/21 00:30:08;;;;;;;1.00;0.90;;;20.50;39.40;;;;;;5055101;28;20075;-62
2022/04/21 00:32:35;;;;;;;1.15;1.08;;;20.50;39.40;;;;;;5053254;28;20136;-61
2022/04/21 00:35:01;;;;;;;1.50;1.10;;;20.40;39.40;;;;;;5052669;28;20037;-63
2022/04/21 00:37:27;;;;;;;1.30;1.20;;;20.40;39.40;;;;;;5056622;28;20093;-62
2022/04/21 00:39:52;;;;;;;1.38;1.10;;;20.40;39.30;;;;;;5053929;28;20037;-63
2022/04/21 00:42:18;;;;;;;1.33;1.23;;;20.40;39.40;;;;;;5055267;28;20048;-64
2022/04/21 00:44:43;;;;;;;2.35;1.27;;;20.40;39.30;;;;;;5052726;28;20392;-65
2022/04/21 00:47:09;;;;;;;1.05;0.95;;;20.40;39.30;;;;;;5055752;28;20033;-63
2022/04/21 00:49:36;;;;;;;1.20;1.10;;;20.40;39.30;;;;;;5053343;28;20071;-62
2022/04/21 00:52:03;;;;;;;1.45;1.10;;;20.40;39.30;;;;;;5055126;28;20052;-61
2022/04/21 00:54:33;;;;;;;0.93;0.82;;;20.40;39.30;;;;;;5058100;28;20629;-62
2022/04/21 00:57:03;;;;;;;1.60;1.20;;;20.40;39.30;;;;;;5051995;28;20637;-63
2022/04/21 00:59:30;;;;;;;1.45;1.35;;;20.40;39.20;;;;;;5053503;28;20118;-62
2022/04/21 01:04:41;;;;;;;1.35;1.25;;;20.40;39.20;;;;;;5053576;28;20436;-65
2022/04/21 01:07:08;;;;;;;1.38;1.27;;;20.40;39.30;;;;;;5053608;28;20033;-62
2022/04/21 01:09:35;;;;;;;1.83;1.23;;;20.40;39.30;;;;;;5037826;28;20479;-62
2022/04/21 01:12:02;;;;;;;1.90;1.10;;;20.40;39.20;;;;;;5053689;28;20468;-63
2022/04/21 01:14:30;;;;;;;1.23;1.13;;;20.40;39.20;;;;;;5054717;28;20044;-62
2022/04/21 01:16:59;;;;;;;1.10;1.00;;;20.40;39.20;;;;;;5055763;28;20033;-62
2022/04/21 01:19:25;;;;;;;1.38;1.10;;;20.40;39.20;;;;;;5055429;28;20055;-62
2022/04/21 01:21:50;;;;;;;1.45;1.20;;;20.40;39.20;;;;;;5052492;28;20040;-62
2022/04/21 01:24:16;;;;;;;1.58;1.20;;;20.40;39.20;;;;;;5051270;28;20078;-62
2022/04/21 01:26:42;;;;;;;1.20;1.10;;;20.30;39.10;;;;;;5052662;28;20052;-62
2022/04/21 01:29:07;;;;;;;1.30;1.20;;;20.30;39.20;;;;;;5053807;28;20036;-63
2022/04/21 01:31:33;;;;;;;1.40;1.30;;;20.30;39.20;;;;;;5054364;28;20545;-62
2022/04/21 01:33:59;;;;;;;1.30;1.20;;;20.30;39.20;;;;;;5051193;28;20109;-64
2022/04/21 01:36:24;;;;;;;1.98;1.30;;;20.30;39.20;;;;;;5052756;28;20044;-62
2022/04/21 01:41:35;;;;;;;1.17;1.08;;;20.30;39.20;;;;;;5054898;28;20117;-62
2022/04/21 01:44:02;;;;;;;1.58;1.27;;;20.30;39.20;;;;;;5053664;28;20457;-63
2022/04/21 01:46:27;;;;;;;1.63;1.52;;;20.30;39.20;;;;;;5053221;28;20416;-64
2022/04/21 01:48:53;;;;;;;1.20;1.10;;;20.30;39.20;;;;;;5053058;28;20033;-62
2022/04/21 01:51:18;;;;;;;1.50;1.40;;;20.30;39.30;;;;;;5052956;28;20112;-64
2022/04/21 01:53:44;;;;;;;1.85;1.20;;;20.30;39.20;;;;;;5050121;28;20074;-65
2022/04/21 01:56:09;;;;;;;1.52;1.10;;;20.30;39.20;;;;;;5052897;28;20037;-62
2022/04/21 01:58:35;;;;;;;1.27;1.17;;;20.30;39.20;;;;;;5055764;28;20124;-63
2022/04/21 02:01:00;;;;;;;1.40;1.30;;;20.30;39.20;;;;;;5051407;28;20036;-63
2022/04/21 02:03:28;;;;;;;1.63;1.10;;;20.30;39.20;;;;;;5050722;28;20109;-64
2022/04/21 02:05:53;;;;;;;1.35;1.10;;;20.20;39.10;;;;;;5051451;28;20036;-63
2022/04/21 02:08:19;;;;;;;1.58;1.27;;;20.20;39.10;;;;;;5053495;28;20079;-62
2022/04/21 02:10:44;;;;;;;2.10;1.40;;;20.20;39.10;;;;;;5050125;28;20243;-62
2022/04/21 02:13:10;;;;;;;1.27;1.17;;;20.20;39.10;;;;;;5060270;28;20300;-62
2022/04/21 02:15:35;;;;;;;2.10;1.20;;;20.20;39.10;;;;;;5053922;28;20504;-63
2022/04/21 02:18:01;;;;;;;1.60;1.30;;;20.20;39.10;;;;;;5051815;28;20033;-62
2022/04/21 02:20:27;;;;;;;1.40;1.30;;;20.20;39.10;;;;;;5047100;28;20067;-62
2022/04/21 02:22:52;;;;;;;1.48;1.30;;;20.20;39.10;;;;;;5051081;28;20113;-61
2022/04/21 02:25:18;;;;;;;2.30;1.23;;;20.20;39.10;;;;;;5053757;28;20040;-61
2022/04/21 02:27:46;;;;;;;1.98;1.50;;;20.20;39.10;;;;;;5042027;28;20125;-62
2022/04/21 02:30:13;;;;;;;1.67;1.35;;;20.20;39.10;;;;;;5052407;28;20064;-62
2022/04/21 02:32:40;;;;;;;2.25;1.27;;;20.20;39.10;;;;;;5053597;28;20517;-63
2022/04/21 02:35:09;;;;;;;1.52;1.20;;;20.20;39.10;;;;;;5061219;28;20041;-63
2022/04/21 02:37:39;;;;;;;1.30;1.20;;;20.20;39.10;;;;;;5056466;28;20128;-63
2022/04/21 02:40:06;;;;;;;2.40;1.60;;;20.20;39.10;;;;;;5055709;28;20048;-62
2022/04/21 02:42:32;;;;;;;1.60;1.35;;;20.20;39.10;;;;;;5055084;28;20377;-64
2022/04/21 02:44:58;;;;;;;1.63;1.45;;;20.20;39.10;;;;;;5056786;28;20753;-62
2022/04/21 02:47:24;;;;;;;1.50;1.40;;;20.20;39.10;;;;;;5056392;28;20040;-62
2022/04/21 02:49:52;;;;;;;1.38;1.27;;;20.20;39.10;;;;;;5054616;28;20377;-61
2022/04/21 02:52:18;;;;;;;1.50;1.40;;;20.20;39.10;;;;;;5056549;28;20095;-61
2022/04/21 02:57:30;;;;;;;1.40;1.23;;;20.20;39.10;;;;;;5056614;28;20036;-61
2022/04/21 02:59:57;;;;;;;2.15;1.60;;;20.20;39.10;;;;;;5056601;28;20045;-62
2022/04/21 03:02:23;;;;;;;1.67;1.35;;;20.20;39.10;;;;;;5057719;28;20032;-62
2022/04/21 03:04:51;;;;;;;2.13;1.42;;;20.20;39.10;;;;;;5055710;28;20464;-61
2022/04/21 03:07:17;;;;;;;1.42;1.33;;;20.10;39.00;;;;;;5057221;28;20032;-63
2022/04/21 03:09:43;;;;;;;1.60;1.20;;;20.10;39.00;;;;;;5054086;28;20106;-63
2022/04/21 03:12:10;;;;;;;1.90;1.38;;;20.10;39.00;;;;;;5061912;28;20384;-63
2022/04/21 03:14:37;;;;;;;1.67;1.35;;;20.10;39.00;;;;;;5054479;28;20040;-62
2022/04/21 03:17:07;;;;;;;2.08;1.60;;;20.10;39.00;;;;;;5057223;28;20055;-62
2022/04/21 03:19:33;;;;;;;1.65;1.38;;;20.10;39.00;;;;;;5054766;28;20533;-63
2022/04/21 03:24:43;;;;;;;1.73;1.30;;;20.10;39.00;;;;;;5054979;28;20067;-61
2022/04/21 03:27:08;;;;;;;1.80;1.35;;;20.10;39.00;;;;;;5054802;28;20040;-65
2022/04/21 03:29:37;;;;;;;1.63;1.52;;;20.10;39.00;;;;;;5055587;28;20045;-65
2022/04/21 03:32:09;;;;;;;1.33;1.23;;;20.10;39.00;;;;;;5055990;28;20053;-62
2022/04/21 03:34:45;;;;;;;3.63;1.50;;;20.10;39.00;;;;;;5053283;28;20488;-63
2022/04/21 03:37:14;;;;;;;1.48;1.23;;;20.10;39.00;;;;;;5056508;28;20364;-62
2022/04/21 03:39:42;;;;;;;1.42;1.33;;;20.10;39.00;;;;;;5055728;28;20756;-62
2022/04/21 03:42:20;;;;;;;2.00;1.50;;;20.10;39.10;;;;;;5054073;28;20055;-62
2022/04/21 03:44:46;;;;;;;2.22;1.40;;;20.10;39.10;;;;;;5054383;28;20672;-62
2022/04/21 03:47:12;;;;;;;1.90;1.70;;;20.00;39.00;;;;;;5054200;28;20039;-61
2022/04/21 03:49:37;;;;;;;2.10;1.73;;;20.10;39.10;;;;;;5056392;28;20508;-64
2022/04/21 03:52:04;;;;;;;1.63;1.52;;;20.00;39.00;;;;;;5053009;28;20717;-62
2022/04/21 03:54:29;;;;;;;1.58;1.48;;;20.00;39.00;;;;;;5053519;28;20047;-61
2022/04/21 03:56:55;;;;;;;1.70;1.60;;;20.00;39.00;;;;;;5054723;28;20036;-62
2022/04/21 03:59:22;;;;;;;2.10;1.80;;;20.00;39.00;;;;;;5055189;28;20534;-62
2022/04/21 04:01:48;;;;;;;2.50;1.65;;;20.00;39.00;;;;;;5066099;28;20051;-62
2022/04/21 04:04:14;;;;;;;2.65;1.60;;;20.00;39.00;;;;;;5053083;28;20053;-62
2022/04/21 04:12:11;;;;;;;1.70;1.52;;;20.00;39.00;;;;;;5056556;28;20403;-61
2022/04/21 04:14:37;;;;;;;1.70;1.42;;;20.00;39.00;;;;;;5055591;28;20032;-61
2022/04/21 04:17:08;;;;;;;2.58;1.90;;;20.00;39.00;;;;;;5060772;28;20040;-61
2022/04/21 04:19:34;;;;;;;1.70;1.60;;;20.00;39.00;;;;;;5052091;28;20064;-62
2022/04/21 04:22:00;;;;;;;2.38;2.00;;;20.00;39.00;;;;;;5053803;28;20036;-63
2022/04/21 04:24:26;;;;;;;1.92;1.73;;;20.00;39.00;;;;;;5052241;28;20144;-63
2022/04/21 04:26:52;;;;;;;1.70;1.60;;;20.00;39.00;;;;;;5053775;28;20049;-62
2022/04/21 04:29:22;;;;;;;2.05;1.73;;;20.00;39.00;;;;;;5054505;28;20071;-61
2022/04/21 04:31:49;;;;;;;2.13;1.80;;;20.00;39.00;;;;;;5052996;28;20049;-61
2022/04/21 04:34:15;;;;;;;2.33;2.08;;;20.00;39.00;;;;;;5053347;28;20078;-63
2022/04/21 04:36:41;;;;;;;1.80;1.70;;;20.00;39.00;;;;;;5053051;28;20319;-63
2022/04/21 04:39:08;;;;;;;1.80;1.70;;;20.00;39.00;;;;;;5055359;28;20086;-61
2022/04/21 04:44:17;;;;;;;1.90;1.70;;;20.00;39.00;;;;;;5057319;28;20055;-63
2022/04/21 04:46:43;;;;;;;2.03;1.83;;;20.00;39.80;;;;;;5054297;28;20045;-61
2022/04/21 04:49:10;;;;;;;2.15;1.88;;;20.00;39.00;;;;;;5055721;28;20102;-62
2022/04/21 04:51:38;;;;;;;1.55;1.42;;;20.00;39.00;;;;;;5055477;28;20083;-63
2022/04/21 04:54:07;;;;;;;1.90;1.80;;;20.00;39.00;;;;;;5069861;28;20092;-62
2022/04/21 04:56:34;;;;;;;1.60;1.50;;;20.00;39.00;;;;;;5054285;28;20591;-62
2022/04/21 04:59:00;;;;;;;1.83;1.73;;;20.00;39.00;;;;;;5072769;28;20105;-60
2022/04/21 05:01:32;;;;;;;2.35;1.60;;;20.00;39.00;;;;;;5051700;28;20041;-61
2022/04/21 05:04:08;;;;;;;2.60;1.63;;;20.00;39.00;;;;;;5054570;28;20068;-61
2022/04/21 05:06:36;;;;;;;1.33;1.20;;;20.00;39.00;;;;;;5054878;28;20028;-61
2022/04/21 05:09:04;;;;;;;1.80;1.60;;;20.00;39.10;;;;;;5055194;28;20066;-61
2022/04/21 05:11:30;;;;;;;2.15;1.42;;;20.00;39.00;;;;;;5054662;28;20048;-62
2022/04/21 05:13:55;;;;;;;2.17;1.27;;;20.00;39.00;;;;;;5053013;28;20032;-63
2022/04/21 05:16:21;;;;;;;2.17;1.70;;;20.00;39.10;;;;;;5054319;28;20425;-64
2022/04/21 05:18:48;;;;;;;2.65;1.70;;;20.00;39.10;;;;;;5054985;28;20036;-61
2022/04/21 05:21:13;;;;;;;1.90;1.58;;;20.00;38.60;;;;;;5055910;28;20302;-63
2022/04/21 05:23:39;;;;;;;1.88;1.23;;;20.00;39.10;;;;;;5055753;28;20068;-63
2022/04/21 05:26:05;;;;;;;2.00;1.38;;;20.00;39.10;;;;;;5056648;28;20477;-61
2022/04/21 05:28:31;;;;;;;1.40;1.25;;;20.00;39.10;;;;;;5054386;28;20449;-61
2022/04/21 05:31:01;;;;;;;1.35;1.25;;;20.00;39.10;;;;;;5054990;28;20393;-64
2022/04/21 05:33:28;;;;;;;1.90;1.40;;;20.00;39.10;;;;;;5055852;28;20152;-62
2022/04/21 05:35:55;;;;;;;2.63;1.35;;;20.00;39.10;;;;;;5055685;28;20064;-60
2022/04/21 05:38:22;;;;;;;1.42;1.33;;;20.10;39.20;;;;;;5056123;28;20052;-63
2022/04/21 05:40:48;;;;;;;1.48;1.38;;;20.10;39.20;;;;;;5053487;28;20451;-62
2022/04/21 05:43:18;;;;;;;1.45;1.35;;;20.10;39.20;;;;;;5056741;28;20098;-62
2022/04/21 05:45:45;;;;;;;1.63;1.42;;;20.10;39.20;;;;;;5056183;28;20037;-61
2022/04/21 05:48:12;;;;;;;1.90;1.80;;;20.10;39.20;;;;;;5053368;28;20046;-62
2022/04/21 05:50:38;;;;;;;1.83;1.27;;;20.10;39.20;;;;;;5056746;28;20040;-61
2022/04/21 05:53:04;;;;;;;1.52;1.42;;;20.10;39.30;;;;;;5053876;28;20048;-61
2022/04/21 05:55:30;;;;;;;1.63;1.40;;;20.10;39.30;;;;;;5054474;28;20823;-63
2022/04/21 05:57:56;;;;;;;2.33;1.40;;;20.10;39.40;;;;;;5054865;28;20044;-61
2022/04/21 06:00:22;;;;;;;1.75;1.20;;;20.10;39.50;;;;;;5052521;28;20036;-62
2022/04/21 06:02:47;;;;;;;3.40;1.50;;;20.20;39.70;;;;;;5054091;28;20133;-62
2022/04/21 06:05:13;;;;;;;3.78;2.10;;;20.20;39.90;;;;;;5055819;28;20040;-64
2022/04/21 06:07:39;;;;;;;3.00;2.15;;;20.20;40.00;;;;;;5052151;28;20760;-64
2022/04/21 06:10:06;;;;;;;2.10;1.83;;;20.20;40.00;;;;;;5058451;28;21453;-62
2022/04/21 06:12:33;;;;;;;2.70;1.80;;;20.20;39.90;;;;;;5058943;28;20132;-62
2022/04/21 06:14:58;;;;;;;2.80;1.90;;;20.20;39.80;;;;;;5059557;28;20523;-62
2022/04/21 06:17:25;;;;;;;4.15;1.95;;;20.20;39.80;;;;;;5058103;28;20039;-62
2022/04/21 06:19:50;;;;;;;3.30;2.20;;;20.20;39.80;;;;;;5056819;28;20128;-61
2022/04/21 06:22:16;;;;;;;2.58;2.30;;;20.30;40.00;;;;;;5055904;28;20158;-63
2022/04/21 06:24:42;;;;;;;2.00;1.80;;;20.30;40.00;;;;;;5057005;28;20071;-64
2022/04/21 06:27:08;;;;;;;2.17;1.95;;;20.30;39.90;;;;;;5057340;28;20915;-62
2022/04/21 06:29:34;;;;;;;2.13;1.92;;;20.30;39.90;;;;;;5057409;28;20045;-61
2022/04/21 06:31:59;;;;;;;3.67;1.80;;;20.30;39.80;;;;;;5058600;28;20547;-62
2022/04/21 06:34:25;;;;;;;2.45;2.17;;;20.30;39.80;;;;;;5054552;28;20488;-62
2022/04/21 06:36:50;;;;;;;1.90;1.75;;;20.30;39.60;;;;;;5057306;28;20037;-63
2022/04/21 06:39:16;;;;;;;4.55;1.83;;;20.40;39.70;;;;;;5055587;28;20045;-63
2022/04/21 06:41:41;;;;;;;3.65;2.50;;;20.40;39.60;;;;;;5054186;28;20097;-64
2022/04/21 06:49:55;;;;;;;2.72;2.05;;;20.40;39.70;;;;;;5008041;28;20155;-63
2022/04/21 06:52:21;;;;;;;5.90;1.95;;;20.40;39.70;;;;;;5044977;28;20052;-64
2022/04/21 06:54:47;;;;;;;2.08;1.60;;;20.40;39.70;;;;;;5055252;28;20037;-62
2022/04/21 06:57:13;;;;;;;2.83;2.20;;;20.50;39.70;;;;;;5054522;28;20045;-61
2022/04/21 06:59:39;;;;;;;1.80;1.55;;;20.50;39.60;;;;;;5053964;28;20037;-62
2022/04/21 07:02:04;;;;;;;2.85;1.60;;;20.50;39.50;;;;;;5052875;28;20066;-61
2022/04/21 07:04:30;;;;;;;2.40;1.95;;;20.50;39.50;;;;;;5053309;28;20045;-63
2022/04/21 07:06:56;;;;;;;5.03;1.88;;;20.50;39.40;;;;;;5054021;28;20064;-63
2022/04/21 07:09:21;;;;;;;3.72;1.70;;;20.50;39.30;;;;;;5053260;28;20137;-62
2022/04/21 07:11:47;;;;;;;2.88;2.08;;;20.50;39.20;;;;;;5055736;28;20515;-62
2022/04/21 07:14:13;;;;;;;2.20;1.50;;;20.50;39.10;;;;;;5053976;28;20036;-62
2022/04/21 07:16:38;;;;;;;2.65;1.73;;;20.50;39.20;;;;;;5055089;28;20068;-62
2022/04/21 07:19:04;;;;;;;3.85;1.80;;;20.50;39.20;;;;;;5051645;28;20053;-61
2022/04/21 07:21:30;;;;;;;2.03;1.65;;;20.50;39.20;;;;;;5055451;28;20146;-59
2022/04/21 07:23:55;;;;;;;4.68;1.92;;;20.50;39.10;;;;;;5053164;28;20036;-63
2022/04/21 07:26:21;;;;;;;2.08;1.40;;;20.50;39.10;;;;;;5053957;28;20032;-62
2022/04/21 07:28:46;;;;;;;1.70;1.35;;;20.50;39.10;;;;;;5044102;28;20507;-62
2022/04/21 07:31:12;;;;;;;3.75;1.67;;;20.60;39.10;;;;;;5040621;28;113324;-61
2022/04/21 07:33:37;;;;;;;3.55;1.73;;;20.60;39.20;;;;;;5058354;28;20137;-60
2022/04/21 07:36:03;;;;;;;1.90;1.42;;;20.60;39.20;;;;;;5056211;28;20198;-60
2022/04/21 07:38:31;;;;;;;2.10;1.30;;;20.60;39.20;;;;;;5058939;28;20033;-61
2022/04/21 07:40:56;;;;;;;2.65;1.38;;;20.60;39.10;;;;;;5057971;28;20567;-62
2022/04/21 07:43:22;;;;;;;3.00;1.65;;;20.60;39.10;;;;;;5055521;28;20044;-62
2022/04/21 07:45:49;;;;;;;2.90;1.63;;;20.60;39.10;;;;;;5056799;28;20156;-65
2022/04/21 07:48:15;;;;;;;4.47;2.10;;;20.60;39.00;;;;;;5045568;28;20083;-62
2022/04/21 07:50:41;;;;;;;3.28;1.50;;;20.60;39.00;;;;;;5057450;28;20163;-63
2022/04/21 07:53:18;;;;;;;3.72;1.40;;;20.60;39.00;;;;;;5053887;28;20045;-64
2022/04/21 07:55:48;;;;;;;1.95;1.50;;;20.60;39.00;;;;;;5053243;28;20040;-64
2022/04/21 07:58:14;;;;;;;1.73;1.35;;;20.70;39.10;;;;;;5053456;28;20109;-63
2022/04/21 08:00:40;;;;;;;4.82;1.50;;;20.70;39.10;;;;;;5053352;28;20028;-64
2022/04/21 08:03:10;;;;;;;3.75;1.48;;;20.70;39.50;;;;;;5054055;28;20183;-63
2022/04/21 08:05:36;;;;;;;2.10;1.58;;;20.70;39.90;;;;;;5053682;28;20052;-62
2022/04/21 08:08:03;;;;;;;2.83;1.20;;;20.70;40.10;;;;;;5054948;28;20567;-64
2022/04/21 08:10:29;;;;;;;2.22;1.73;;;20.70;41.00;;;;;;5055540;28;20052;-62
2022/04/21 08:12:58;;;;;;;2.72;1.60;;;20.70;40.50;;;;;;5050833;28;20045;-63
2022/04/21 08:15:31;;;;;;;4.30;2.58;;;20.70;40.60;;;;;;5066535;28;20074;-63
2022/04/21 08:17:59;;;;;;;4.88;3.03;;;20.70;40.80;;;;;;5058392;28;20124;-62
2022/04/21 08:20:27;;;;;;;5.57;3.15;;;20.80;41.10;;;;;;5056183;28;20131;-63
2022/04/21 08:22:53;;;;;;;3.58;2.67;;;20.70;41.30;;;;;;5055933;28;20040;-65
2022/04/21 08:33:49;;;;;;;3.25;2.47;;;20.80;41.80;;;;;;4983516;28;20061;-63
2022/04/21 08:36:14;;;;;;;4.45;2.75;;;20.80;42.00;;;;;;5036517;28;20048;-64
2022/04/21 08:38:40;;;;;;;3.65;2.85;;;20.80;42.00;;;;;;5036192;28;20048;-62
2022/04/21 08:41:11;;;;;;;3.55;3.03;;;20.90;42.00;;;;;;5054463;28;20040;-64
2022/04/21 08:43:37;;;;;;;3.80;2.55;;;20.90;42.00;;;;;;5044084;28;20155;-62
2022/04/21 08:46:04;;;;;;;2.95;2.55;;;20.90;41.90;;;;;;5064792;28;20458;-64
2022/04/21 08:48:30;;;;;;;3.63;2.65;;;20.90;41.70;;;;;;5048954;28;20040;-62
2022/04/21 08:50:56;;;;;;;3.40;2.50;;;20.90;41.40;;;;;;5054370;28;20447;-63
2022/04/21 08:53:26;;;;;;;4.05;2.30;;;20.90;41.20;;;;;;5052038;28;20090;-64
2022/04/21 08:55:53;;;;;;;3.30;2.33;;;20.90;41.20;;;;;;5067745;28;20082;-63
2022/04/21 08:58:20;;;;;;;4.35;2.20;;;21.00;41.30;;;;;;5051223;28;20044;-65
2022/04/21 09:00:46;;;;;;;2.85;2.40;;;20.90;41.00;;;;;;5054675;28;20456;-63
2022/04/21 09:03:13;;;;;;;2.35;2.13;;;20.90;40.90;;;;;;5048387;28;20045;-63
2022/04/21 09:05:39;;;;;;;3.35;1.70;;;20.90;40.80;;;;;;5049668;28;20049;-65
2022/04/21 09:08:05;;;;;;;2.85;1.92;;;20.90;41.70;;;;;;5050521;28;20052;-66
2022/04/21 09:10:32;;;;;;;3.25;2.25;;;20.90;40.90;;;;;;5051463;28;20048;-64
2022/04/21 09:13:00;;;;;;;2.35;1.92;;;20.90;40.70;;;;;;5054010;28;20071;-63
2022/04/21 09:15:30;;;;;;;2.80;2.15;;;20.90;40.70;;;;;;5051960;28;20641;-62
2022/04/21 09:18:01;;;;;;;2.20;2.03;;;20.90;40.50;;;;;;5051454;28;20048;-64
2022/04/21 09:20:35;;;;;;;3.83;2.00;;;20.90;40.40;;;;;;5052751;28;20117;-63
2022/04/21 09:23:10;;;;;;;3.70;2.15;;;20.90;40.50;;;;;;5053841;28;20120;-63
2022/04/21 09:25:44;;;;;;;3.05;2.03;;;20.90;40.40;;;;;;5054193;28;20041;-63
2022/04/21 09:28:29;;;;;;;4.35;2.30;;;20.90;40.40;;;;;;5055036;28;20048;-64
2022/04/21 09:30:58;;;;;;;2.20;2.00;;;20.90;40.60;;;;;;5054285;28;20052;-61
2022/04/21 09:33:32;;;;;;;2.42;1.92;;;20.90;40.70;;;;;;5069213;28;20060;-63
2022/04/21 09:35:59;;;;;;;2.85;1.80;;;21.00;40.90;;;;;;5035996;28;20047;-62
2022/04/21 09:38:26;;;;;;;3.75;1.92;;;21.00;41.00;;;;;;5054447;28;20039;-62
2022/04/21 09:40:51;;;;;;;2.30;1.80;;;21.00;41.10;;;;;;5053336;28;20040;-61
2022/04/21 09:43:32;;;;;;;4.85;2.35;;;21.00;41.10;;;;;;5051289;28;20037;-63
2022/04/21 09:46:10;;;;;;;2.97;1.92;;;21.00;41.40;;;;;;5036646;28;20044;-65
2022/04/21 09:48:36;;;;;;;2.15;1.95;;;21.00;41.40;;;;;;5050300;28;20178;-63
2022/04/21 09:51:13;;;;;;;2.50;1.98;;;21.00;42.10;;;;;;5052748;28;20045;-62
2022/04/21 09:54:05;;;;;;;3.03;2.25;;;21.10;41.30;;;;;;5053761;28;20064;-64
2022/04/21 09:56:41;;;;;;;2.75;2.03;;;21.10;39.80;;;;;;5049654;28;20135;-62
2022/04/21 09:59:09;;;;;;;3.60;1.73;;;21.00;39.10;;;;;;5053538;28;20052;-63
2022/04/21 10:01:42;;;;;;;3.15;1.70;;;21.00;39.00;;;;;;5054844;28;20554;-63
2022/04/21 10:04:09;;;;;;;5.00;1.92;;;21.00;39.00;;;;;;5054635;28;20037;-61
2022/04/21 10:06:37;;;;;;;5.35;1.80;;;21.00;39.10;;;;;;5051387;28;20099;-64
2022/04/21 10:09:02;;;;;;;3.88;1.50;;;21.00;39.20;;;;;;5052189;28;20032;-63
2022/04/21 10:11:29;;;;;;;2.60;1.45;;;21.00;39.10;;;;;;5051967;28;20159;-61
2022/04/21 10:13:56;;;;;;;5.60;1.60;;;21.00;39.10;;;;;;5053652;28;20041;-62
2022/04/21 10:16:23;;;;;;;4.57;1.60;;;21.00;39.10;;;;;;5055766;28;20114;-63
2022/04/21 10:18:52;;;;;;;6.15;1.95;;;21.00;39.00;;;;;;5053850;28;20122;-63
2022/04/21 10:21:48;;;;;;;1.60;1.42;;;21.00;38.60;;;;;;5054431;28;20036;-62
2022/04/21 10:24:20;;;;;;;2.65;1.65;;;21.00;38.50;;;;;;5053413;28;20056;-60
2022/04/21 10:26:46;;;;;;;2.60;1.67;;;21.00;38.80;;;;;;5049758;28;20607;-64
2022/04/21 10:29:14;;;;;;;3.50;1.38;;;21.00;38.70;;;;;;5050315;28;20044;-61
2022/04/21 10:31:57;;;;;;;3.83;1.48;;;21.00;38.70;;;;;;5062619;28;20083;-64
2022/04/21 10:34:31;;;;;;;4.38;1.75;;;21.00;38.90;;;;;;5050999;28;20071;-62
2022/04/21 10:37:31;;;;;;;3.90;1.60;;;20.90;39.80;;;;;;5052499;28;20044;-61
2022/04/21 10:40:14;;;;;;;9.55;1.80;;;21.00;39.20;;;;;;5052326;28;20105;-62
2022/04/21 10:42:52;;;;;;;3.78;1.60;;;21.00;39.40;;;;;;5053317;28;20137;-63
2022/04/21 10:45:31;;;;;;;11.27;1.88;;;20.90;39.50;;;;;;5053097;28;20066;-63
2022/04/21 10:48:08;;;;;;;3.05;1.48;;;21.00;39.70;;;;;;5055419;28;20060;-61
2022/04/21 10:50:35;;;;;;;2.92;1.40;;;21.00;39.70;;;;;;5054130;28;20037;-63
2022/04/21 10:58:35;;;;;;;1.92;1.80;;;21.00;39.80;;;;;;5057868;28;20098;-62
2022/04/21 11:01:11;;;;;;;3.33;1.38;;;21.00;39.80;;;;;;5058055;28;20524;-62
2022/04/21 11:03:38;;;;;;;3.95;1.40;;;21.00;39.80;;;;;;5055098;28;20063;-61
2022/04/21 11:06:08;;;;;;;1.40;1.30;;;21.00;39.60;;;;;;5057604;28;20144;-62
2022/04/21 11:08:34;;;;;;;3.10;1.20;;;21.00;39.20;;;;;;5057940;28;20094;-61
2022/04/21 11:11:00;;;;;;;2.35;1.55;;;20.90;39.00;;;;;;5053996;28;20549;-64
2022/04/21 11:14:03;;;;;;;1.35;1.23;;;20.90;39.00;;;;;;5054939;28;20098;-66
2022/04/21 11:16:41;;;;;;;1.33;1.15;;;20.90;38.80;;;;;;5055142;28;20059;-63
2022/04/21 11:19:30;;;;;;;1.73;1.50;;;20.90;38.70;;;;;;5056927;28;20667;-63
2022/04/21 11:21:56;;;;;;;1.90;1.30;;;20.90;38.60;;;;;;5056950;28;20036;-64
2022/04/21 11:24:23;;;;;;;2.35;1.38;;;20.90;38.80;;;;;;5054927;28;20037;-61
2022/04/21 11:26:59;;;;;;;3.00;1.08;;;20.90;38.80;;;;;;5056307;28;20386;-63
2022/04/21 11:29:25;;;;;;;3.30;1.17;;;20.90;38.90;;;;;;5053503;28;20094;-62
2022/04/21 11:31:59;;;;;;;2.97;1.17;;;20.90;38.90;;;;;;5053099;28;20053;-63
2022/04/21 11:34:25;;;;;;;1.70;1.10;;;20.90;38.90;;;;;;5058832;28;20228;-63
2022/04/21 11:37:01;;;;;;;3.15;1.48;;;20.90;38.90;;;;;;5053324;28;20068;-62
2022/04/21 11:39:26;;;;;;;3.00;1.38;;;20.90;38.80;;;;;;5055330;28;20488;-61
2022/04/21 11:41:53;;;;;;;3.88;1.63;;;20.90;38.50;;;;;;5055493;28;20048;-62
2022/04/21 11:44:22;;;;;;;9.25;1.35;;;20.90;38.50;;;;;;5056772;28;20052;-61
2022/04/21 11:46:49;;;;;;;3.45;1.00;;;20.90;38.50;;;;;;5073499;28;20053;-61
2022/04/21 11:49:14;;;;;;;1.40;1.30;;;20.90;38.50;;;;;;5052006;28;20091;-62
2022/04/21 11:51:41;;;;;;;4.20;1.38;;;20.90;38.50;;;;;;5043536;28;20048;-61
2022/04/21 11:54:09;;;;;;;1.85;1.30;;;20.90;38.50;;;;;;5054876;28;20046;-60
2022/04/21 11:56:35;;;;;;;2.33;1.38;;;20.90;38.50;;;;;;5055564;28;20115;-60
2022/04/21 11:59:09;;;;;;;2.47;1.25;;;20.90;38.50;;;;;;5054956;28;20056;-65
2022/04/21 12:07:14;;;;;;;3.40;1.25;;;20.90;38.60;;;;;;5053367;28;20366;-60
2022/04/21 12:09:41;;;;;;;1.85;1.48;;;20.90;38.70;;;;;;5055098;28;20036;-63
2022/04/21 12:12:08;;;;;;;1.60;1.05;;;20.90;38.70;;;;;;5054181;28;20059;-62
2022/04/21 12:14:34;;;;;;;2.20;1.17;;;20.90;38.70;;;;;;5070615;28;20041;-61
2022/04/21 12:17:01;;;;;;;2.58;1.27;;;20.90;38.70;;;;;;5053765;28;20123;-61
2022/04/21 12:19:32;;;;;;;1.75;1.40;;;20.90;38.70;;;;;;5054208;28;20063;-62
2022/04/21 12:22:03;;;;;;;3.38;1.20;;;20.90;38.70;;;;;;5054215;28;20170;-61
2022/04/21 12:24:34;;;;;;;1.10;1.00;;;20.90;38.70;;;;;;5055152;28;20054;-64
2022/04/21 12:27:22;;;;;;;2.05;1.30;;;20.90;38.70;;;;;;5068738;28;20059;-61
2022/04/21 12:29:56;;;;;;;2.42;1.40;;;20.90;38.70;;;;;;5055802;28;20052;-62
2022/04/21 12:32:25;;;;;;;1.70;1.30;;;20.90;38.70;;;;;;5015672;28;20140;-62
2022/04/21 12:34:54;;;;;;;1.52;1.33;;;20.90;38.70;;;;;;5015350;28;20648;-62
2022/04/21 12:37:24;;;;;;;2.25;1.45;;;20.90;38.70;;;;;;5016406;28;20704;-60
2022/04/21 12:39:51;;;;;;;3.83;1.90;;;20.90;38.70;;;;;;5016608;28;20417;-61
2022/04/21 12:42:17;;;;;;;1.92;1.58;;;20.90;38.80;;;;;;5014485;28;20425;-64
2022/04/21 12:44:44;;;;;;;1.58;1.30;;;20.90;38.70;;;;;;5012181;28;20049;-62
2022/04/21 12:47:18;;;;;;;1.85;1.38;;;20.90;38.70;;;;;;5014971;28;20059;-62
2022/04/21 12:50:18;;;;;;;2.35;1.50;;;21.00;38.80;;;;;;5014201;28;20429;-64
2022/04/21 12:52:50;;;;;;;3.80;2.45;;;21.00;38.50;;;;;;5008021;28;20570;-62
2022/04/21 12:55:21;;;;;;;4.50;2.03;;;20.90;37.70;;;;;;5013037;28;20045;-62
2022/04/21 12:58:05;;;;;;;3.67;2.25;;;20.90;37.80;;;;;;4998922;28;20550;-64
2022/04/21 13:00:32;;;;;;;3.20;2.55;;;20.90;37.50;;;;;;5013734;28;20046;-62
2022/04/21 13:02:59;;;;;;;4.03;2.42;;;20.90;37.50;;;;;;5013401;28;20054;-62
2022/04/21 13:05:25;;;;;;;5.13;2.60;;;20.90;37.40;;;;;;5010762;28;20516;-62
2022/04/21 13:07:50;;;;;;;2.47;2.25;;;20.90;37.70;;;;;;5014172;28;20123;-62
2022/04/21 13:10:16;;;;;;;3.20;2.15;;;20.90;37.70;;;;;;5015995;28;20046;-62
2022/04/21 13:12:42;;;;;;;3.65;2.63;;;20.90;37.70;;;;;;5014198;28;21057;-63
2022/04/21 13:15:08;;;;;;;6.25;3.03;;;20.90;37.40;;;;;;5011893;28;20122;-63
2022/04/21 13:17:34;;;;;;;3.90;2.60;;;20.90;37.40;;;;;;5017626;28;20033;-61
2022/04/21 13:20:00;;;;;;;3.58;2.70;;;20.90;37.10;;;;;;5013600;28;20040;-62
2022/04/21 13:22:26;;;;;;;4.25;2.63;;;20.90;37.10;;;;;;5013091;28;20046;-64
2022/04/21 13:24:51;;;;;;;2.80;2.42;;;20.90;37.30;;;;;;5014896;28;20604;-62
2022/04/21 13:27:19;;;;;;;2.92;2.50;;;20.90;37.20;;;;;;5013421;28;20044;-63
2022/04/21 13:29:44;;;;;;;4.30;2.22;;;20.90;37.10;;;;;;5012980;28;20107;-61
2022/04/21 13:34:54;;;;;;;2.53;1.98;;;20.90;36.90;;;;;;5054774;28;20042;-64
2022/04/21 13:37:20;;;;;;;2.95;1.80;;;20.90;36.80;;;;;;5054006;28;20469;-63
2022/04/21 13:39:46;;;;;;;5.03;1.90;;;20.90;37.00;;;;;;5050375;28;20536;-62
2022/04/21 13:42:12;;;;;;;2.03;1.60;;;20.90;37.00;;;;;;5049945;28;20151;-63